createdAt,value
2023-01-08T00:02:30.797Z,7.70
2023-01-08T00:05:20.991Z,7.70
2023-01-08T00:08:10.038Z,7.80
2023-01-08T00:10:59.067Z,7.80
2023-01-08T00:13:48.387Z,7.80
2023-01-08T00:16:37.176Z,7.90
2023-01-08T00:19:25.940Z,7.80
2023-01-08T00:22:15.982Z,7.80
2023-01-08T00:25:04.821Z,7.90
2023-01-08T00:27:53.404Z,7.90
2023-01-08T00:30:42.169Z,7.90
2023-01-08T00:33:31.594Z,7.90
2023-01-08T00:36:21.158Z,7.90
2023-01-08T00:39:11.169Z,7.90
2023-01-08T00:41:59.867Z,7.90
2023-01-08T00:44:48.561Z,8.00
2023-01-08T00:47:38.356Z,8.00
2023-01-08T00:50:27.821Z,8.00
2023-01-08T00:53:17.132Z,8.00
2023-01-08T00:56:12.171Z,8.00
2023-01-08T00:59:01.314Z,8.00
2023-01-08T01:01:51.275Z,8.10
2023-01-08T01:04:40.817Z,8.10
2023-01-08T01:07:29.500Z,8.10
2023-01-08T01:10:19.067Z,8.00
2023-01-08T01:13:09.134Z,8.10
2023-01-08T01:16:01.317Z,8.00
2023-01-08T01:18:52.346Z,8.10
2023-01-08T01:21:41.069Z,8.10
2023-01-08T01:24:29.754Z,8.10
2023-01-08T01:27:18.497Z,8.10
2023-01-08T01:30:10.417Z,8.10
2023-01-08T01:32:59.022Z,8.10
2023-01-08T01:35:47.791Z,8.10
2023-01-08T01:38:36.511Z,8.10
2023-01-08T01:41:28.631Z,8.20
2023-01-08T01:44:42.065Z,8.20
2023-01-08T01:47:35.638Z,8.20
2023-01-08T01:50:30.271Z,8.20
2023-01-08T01:53:22.856Z,8.20
2023-01-08T01:56:11.793Z,8.20
2023-01-08T01:59:00.622Z,8.20
2023-01-08T02:01:49.787Z,8.20
2023-01-08T02:04:39.895Z,8.20
2023-01-08T02:07:33.916Z,8.20
2023-01-08T02:10:31.208Z,8.30
2023-01-08T02:13:24.658Z,8.20
2023-01-08T02:16:18.278Z,8.30
2023-01-08T02:19:17.964Z,8.20
2023-01-08T02:22:26.428Z,8.10
2023-01-08T02:25:22.462Z,8.10
2023-01-08T02:28:14.740Z,8.00
2023-01-08T02:31:04.111Z,7.90
2023-01-08T02:33:53.181Z,7.90
2023-01-08T02:36:45.013Z,7.90
2023-01-08T02:39:44.904Z,7.90
2023-01-08T02:42:41.857Z,7.80
2023-01-08T02:45:45.043Z,7.70
2023-01-08T02:48:41.248Z,7.70
2023-01-08T02:51:32.631Z,7.70
2023-01-08T02:54:26.704Z,7.70
2023-01-08T02:57:16.922Z,7.60
2023-01-08T03:00:06.937Z,7.60
2023-01-08T03:03:11.913Z,7.70
2023-01-08T03:06:03.735Z,7.60
2023-01-08T03:08:55.014Z,7.60
2023-01-08T03:11:49.747Z,7.60
2023-01-08T03:14:45.544Z,7.60
2023-01-08T03:17:37.512Z,7.60
2023-01-08T03:20:27.688Z,7.50
2023-01-08T03:23:17.771Z,7.50
2023-01-08T03:26:08.078Z,7.50
2023-01-08T03:28:58.815Z,7.50
2023-01-08T03:31:48.842Z,7.40
2023-01-08T03:34:40.497Z,7.40
2023-01-08T03:37:36.900Z,7.40
2023-01-08T03:40:30.504Z,7.40
2023-01-08T03:43:19.243Z,7.40
2023-01-08T03:46:14.676Z,7.30
2023-01-08T03:49:06.298Z,7.30
2023-01-08T03:51:54.958Z,7.30
2023-01-08T03:54:44.950Z,7.30
2023-01-08T03:57:33.512Z,7.30
2023-01-08T04:00:22.423Z,7.30
2023-01-08T04:03:11.030Z,7.20
2023-01-08T04:06:01.272Z,7.20
2023-01-08T04:08:49.933Z,7.30
2023-01-08T04:11:39.960Z,7.30
2023-01-08T04:14:28.722Z,7.20
2023-01-08T04:17:17.331Z,7.20
2023-01-08T04:20:06.836Z,7.20
2023-01-08T04:22:55.467Z,7.20
2023-01-08T04:25:44.111Z,7.20
2023-01-08T04:28:34.196Z,7.20
2023-01-08T04:31:22.904Z,7.20
2023-01-08T04:34:11.718Z,7.20
2023-01-08T04:37:00.700Z,7.20
2023-01-08T04:39:49.314Z,7.20
2023-01-08T04:42:37.888Z,7.10
2023-01-08T04:45:27.981Z,7.10
2023-01-08T04:48:16.548Z,7.10
2023-01-08T04:51:06.588Z,7.20
2023-01-08T04:53:55.257Z,7.20
2023-01-08T04:56:43.817Z,7.20
2023-01-08T04:59:32.447Z,7.10
2023-01-08T05:02:22.696Z,7.10
2023-01-08T05:05:11.658Z,7.20
2023-01-08T05:08:00.458Z,7.10
2023-01-08T05:10:49.054Z,7.10
2023-01-08T05:13:37.660Z,7.10
2023-01-08T05:16:26.308Z,7.10
2023-01-08T05:19:16.483Z,7.10
2023-01-08T05:22:05.197Z,7.10
2023-01-08T05:24:53.885Z,7.10
2023-01-08T05:27:42.485Z,7.10
2023-01-08T05:30:31.165Z,7.00
2023-01-08T05:33:19.808Z,7.00
2023-01-08T05:36:11.986Z,7.00
2023-01-08T05:39:00.575Z,7.00
2023-01-08T05:41:49.201Z,7.00
2023-01-08T05:44:37.838Z,7.00
2023-01-08T05:47:26.427Z,7.00
2023-01-08T05:50:15.036Z,7.00
2023-01-08T05:53:07.868Z,7.00
2023-01-08T05:56:01.017Z,7.00
2023-01-08T05:58:49.595Z,7.00
2023-01-08T06:01:38.256Z,7.00
2023-01-08T06:04:27.114Z,7.00
2023-01-08T06:07:15.742Z,7.00
2023-01-08T06:10:06.633Z,7.00
2023-01-08T06:12:55.261Z,7.00
2023-01-08T06:15:43.925Z,7.00
2023-01-08T06:18:32.645Z,6.90
2023-01-08T06:21:21.301Z,7.00
2023-01-08T06:24:10.030Z,6.90
2023-01-08T06:27:00.146Z,6.90
2023-01-08T06:29:48.775Z,6.90
2023-01-08T06:32:37.447Z,6.90
2023-01-08T06:35:26.850Z,6.90
2023-01-08T06:38:15.455Z,6.90
2023-01-08T06:41:06.411Z,6.90
2023-01-08T06:43:56.407Z,6.90
2023-01-08T06:46:45.155Z,6.90
2023-01-08T06:49:33.740Z,6.90
2023-01-08T06:52:22.348Z,6.90
2023-01-08T06:55:11.606Z,6.90
2023-01-08T06:58:00.651Z,6.80
2023-01-08T07:00:50.738Z,6.90
2023-01-08T07:03:39.342Z,6.90
2023-01-08T07:06:28.013Z,6.80
2023-01-08T07:09:17.108Z,6.90
2023-01-08T07:12:06.073Z,6.90
2023-01-08T07:14:54.653Z,6.80
2023-01-08T07:17:44.672Z,6.90
2023-01-08T07:20:33.365Z,6.90
2023-01-08T07:23:21.930Z,6.80
2023-01-08T07:26:10.579Z,6.90
2023-01-08T07:28:59.158Z,6.90
2023-01-08T07:31:47.767Z,6.80
2023-01-08T07:34:37.767Z,6.90
2023-01-08T07:37:26.654Z,6.90
2023-01-08T07:40:15.312Z,6.90
2023-01-08T07:43:05.636Z,7.00
2023-01-08T07:45:54.261Z,7.00
2023-01-08T07:48:42.858Z,6.90
2023-01-08T07:51:32.916Z,6.90
2023-01-08T07:54:21.500Z,6.90
2023-01-08T07:57:10.122Z,7.00
2023-01-08T07:59:58.730Z,7.00
2023-01-08T08:02:47.540Z,7.00
2023-01-08T08:05:37.024Z,7.00
2023-01-08T08:08:27.003Z,7.00
2023-01-08T08:11:15.659Z,7.00
2023-01-08T08:14:04.273Z,7.10
2023-01-08T08:16:53.204Z,7.10
2023-01-08T08:19:44.056Z,7.00
2023-01-08T08:22:32.727Z,7.10
2023-01-08T08:25:22.731Z,7.00
2023-01-08T08:28:12.608Z,7.10
2023-01-08T08:31:01.278Z,7.10
2023-01-08T08:33:49.938Z,7.10
2023-01-08T08:36:38.548Z,7.10
2023-01-08T08:39:27.123Z,7.10
2023-01-08T08:42:17.090Z,7.10
2023-01-08T08:45:06.618Z,7.10
2023-01-08T08:47:55.235Z,7.10
2023-01-08T08:50:44.066Z,7.10
2023-01-08T08:53:33.166Z,7.10
2023-01-08T08:56:21.868Z,7.10
2023-01-08T08:59:13.544Z,7.10
2023-01-08T09:02:02.501Z,7.10
2023-01-08T09:04:51.248Z,7.10
2023-01-08T09:07:40.384Z,7.10
2023-01-08T09:10:29.102Z,7.20
2023-01-08T09:13:17.766Z,7.20
2023-01-08T09:16:08.608Z,7.20
2023-01-08T09:18:58.020Z,7.20
2023-01-08T09:21:46.844Z,7.20
2023-01-08T09:24:35.483Z,7.20
2023-01-08T09:27:24.158Z,7.20
2023-01-08T09:30:13.385Z,7.10
2023-01-08T09:33:04.813Z,7.10
2023-01-08T09:35:53.520Z,7.20
2023-01-08T09:38:43.226Z,7.20
2023-01-08T09:41:35.105Z,7.30
2023-01-08T09:44:27.844Z,7.30
2023-01-08T09:47:26.245Z,7.30
2023-01-08T09:50:16.887Z,7.40
2023-01-08T09:53:05.770Z,7.40
2023-01-08T09:56:08.981Z,7.40
2023-01-08T09:59:01.153Z,7.40
2023-01-08T10:01:50.095Z,7.50
2023-01-08T10:04:39.089Z,7.40
2023-01-08T10:07:31.367Z,7.40
2023-01-08T10:10:23.125Z,7.40
2023-01-08T10:13:14.000Z,7.30
2023-01-08T10:16:04.611Z,7.30
2023-01-08T10:18:53.307Z,7.30
2023-01-08T10:21:42.846Z,7.30
2023-01-08T10:24:37.947Z,7.40
2023-01-08T10:27:26.567Z,7.50
2023-01-08T10:30:18.780Z,7.60
2023-01-08T10:33:12.581Z,7.70
2023-01-08T10:36:04.183Z,7.70
2023-01-08T10:38:57.452Z,7.70
2023-01-08T10:41:48.708Z,7.70
2023-01-08T10:44:38.339Z,7.70
2023-01-08T10:47:28.939Z,7.90
2023-01-08T10:50:24.134Z,8.60
2023-01-08T10:53:25.820Z,9.30
2023-01-08T10:56:22.177Z,9.70
2023-01-08T10:59:21.342Z,9.90
2023-01-08T11:02:21.287Z,9.70
2023-01-08T11:05:11.738Z,9.50
2023-01-08T11:08:02.816Z,9.00
2023-01-08T11:10:55.925Z,8.80
2023-01-08T11:13:57.706Z,8.50
2023-01-08T11:16:48.352Z,8.20
2023-01-08T11:19:37.552Z,8.20
2023-01-08T11:22:28.321Z,8.20
2023-01-08T11:25:25.726Z,8.30
2023-01-08T11:28:20.769Z,8.40
2023-01-08T11:31:16.123Z,8.30
2023-01-08T11:34:14.039Z,8.30
2023-01-08T11:37:12.201Z,8.20
2023-01-08T11:40:01.242Z,8.10
2023-01-08T11:43:04.319Z,8.10
2023-01-08T11:46:19.423Z,8.00
2023-01-08T11:49:31.944Z,7.90
2023-01-08T11:52:35.539Z,7.90
2023-01-08T11:55:41.423Z,7.90
2023-01-08T11:58:40.032Z,7.90
2023-01-08T12:01:48.306Z,8.00
2023-01-08T12:05:09.816Z,7.90
2023-01-08T12:08:03.740Z,8.00
2023-01-08T12:11:04.600Z,7.90
2023-01-08T12:14:05.954Z,7.80
2023-01-08T12:17:12.004Z,7.70
2023-01-08T12:20:19.095Z,7.70
2023-01-08T12:23:17.980Z,7.70
2023-01-08T12:26:18.820Z,7.70
2023-01-08T12:29:20.765Z,7.80
2023-01-08T12:32:32.075Z,7.80
2023-01-08T12:35:25.467Z,7.90
2023-01-08T12:38:20.134Z,8.00
2023-01-08T12:41:12.193Z,8.00
2023-01-08T12:44:04.190Z,8.00
2023-01-08T12:46:56.740Z,8.00
2023-01-08T12:49:51.524Z,8.10
2023-01-08T12:52:50.835Z,8.10
2023-01-08T12:55:45.833Z,8.20
2023-01-08T12:58:43.825Z,8.20
2023-01-08T13:01:42.608Z,8.20
2023-01-08T13:04:41.594Z,8.30
2023-01-08T13:07:34.757Z,8.20
2023-01-08T13:10:35.401Z,8.20
2023-01-08T13:13:31.948Z,8.30
2023-01-08T13:16:24.605Z,8.50
2023-01-08T13:19:26.548Z,8.60
2023-01-08T13:22:26.631Z,8.50
2023-01-08T13:25:40.691Z,8.40
2023-01-08T13:28:31.936Z,8.30
2023-01-08T13:31:29.133Z,8.20
2023-01-08T13:34:23.489Z,8.20
2023-01-08T13:37:26.931Z,8.10
2023-01-08T13:40:38.072Z,8.10
2023-01-08T13:43:31.558Z,8.00
2023-01-08T13:46:21.395Z,8.00
2023-01-08T13:49:18.389Z,8.00
2023-01-08T13:52:07.202Z,8.00
2023-01-08T13:54:56.233Z,8.00
2023-01-08T13:57:49.768Z,7.90
2023-01-08T14:00:47.848Z,7.90
2023-01-08T14:03:38.659Z,7.90
2023-01-08T14:06:28.635Z,8.00
2023-01-08T14:09:23.636Z,8.10
2023-01-08T14:12:18.160Z,8.10
2023-01-08T14:15:11.403Z,8.10
2023-01-08T14:18:03.614Z,8.10
2023-01-08T14:20:53.190Z,8.10
2023-01-08T14:23:46.372Z,8.10
2023-01-08T14:26:36.692Z,8.10
2023-01-08T14:29:27.128Z,8.00
2023-01-08T14:32:20.143Z,7.90
2023-01-08T14:35:16.219Z,7.90
2023-01-08T14:38:06.023Z,7.80
2023-01-08T14:41:02.970Z,7.70
2023-01-08T14:43:52.813Z,7.70
2023-01-08T14:46:41.935Z,7.60
2023-01-08T14:49:34.660Z,7.50
2023-01-08T14:52:25.677Z,7.50
2023-01-08T14:55:19.516Z,7.50
2023-01-08T14:58:17.609Z,7.50
2023-01-08T15:01:15.354Z,7.50
2023-01-08T15:04:15.459Z,7.50
2023-01-08T15:07:10.146Z,7.50
2023-01-08T15:10:02.778Z,7.50
2023-01-08T15:13:01.230Z,7.50
2023-01-08T15:15:57.081Z,7.50
2023-01-08T15:18:49.544Z,7.50
2023-01-08T15:21:40.033Z,7.50
2023-01-08T15:24:32.011Z,7.50
2023-01-08T15:27:22.851Z,7.50
2023-01-08T15:30:28.508Z,7.50
2023-01-08T15:33:21.690Z,7.50
2023-01-08T15:36:11.386Z,7.50
2023-01-08T15:39:00.527Z,7.40
2023-01-08T15:42:07.648Z,7.40
2023-01-08T15:44:58.958Z,7.40
2023-01-08T15:47:49.392Z,7.40
2023-01-08T15:50:41.188Z,7.40
2023-01-08T15:53:31.757Z,7.40
2023-01-08T15:56:22.795Z,7.40
2023-01-08T15:59:13.761Z,7.40
2023-01-08T16:02:05.191Z,7.30
2023-01-08T16:04:55.681Z,7.30
2023-01-08T16:07:47.182Z,7.30
2023-01-08T16:10:38.251Z,7.20
2023-01-08T16:13:28.830Z,7.20
2023-01-08T16:16:18.609Z,7.20
2023-01-08T16:19:08.570Z,7.20
2023-01-08T16:21:57.153Z,7.20
2023-01-08T16:24:45.768Z,7.10
2023-01-08T16:27:34.993Z,7.20
2023-01-08T16:30:23.624Z,7.10
2023-01-08T16:33:12.230Z,7.10
2023-01-08T16:36:03.851Z,7.10
2023-01-08T16:38:52.439Z,7.10
2023-01-08T16:41:41.104Z,7.20
2023-01-08T16:44:30.002Z,7.20
2023-01-08T16:47:18.581Z,7.20
2023-01-08T16:50:08.454Z,7.10
2023-01-08T16:53:00.268Z,7.10
2023-01-08T16:55:49.261Z,7.20
2023-01-08T16:58:38.827Z,7.20
2023-01-08T17:01:28.570Z,7.20
2023-01-08T17:04:18.335Z,7.20
2023-01-08T17:07:08.422Z,7.20
2023-01-08T17:10:00.756Z,7.20
2023-01-08T17:12:51.795Z,7.20
2023-01-08T17:15:43.635Z,7.20
2023-01-08T17:18:33.872Z,7.10
2023-01-08T17:21:24.624Z,7.10
2023-01-08T17:24:15.482Z,7.00
2023-01-08T17:27:07.844Z,7.00
2023-01-08T17:29:57.957Z,7.00
2023-01-08T17:32:47.850Z,7.10
2023-01-08T17:38:55.207Z,7.10
2023-01-08T17:42:13.987Z,7.10
2023-01-08T17:45:34.587Z,7.20
2023-01-08T17:48:24.721Z,7.20
2023-01-08T17:51:15.088Z,7.20
2023-01-08T17:54:10.662Z,7.20
2023-01-08T17:57:01.295Z,7.20
2023-01-08T17:59:53.259Z,7.10
2023-01-08T18:02:45.728Z,7.20
2023-01-08T18:06:00.933Z,7.20
2023-01-08T18:11:34.972Z,7.10
2023-01-08T18:17:11.910Z,7.10
2023-01-08T18:20:03.695Z,7.10
2023-01-08T18:22:54.691Z,7.10
2023-01-08T18:25:43.901Z,7.10
2023-01-08T18:28:35.235Z,7.10
2023-01-08T18:31:25.515Z,7.10
2023-01-08T18:34:16.487Z,7.10
2023-01-08T18:37:08.743Z,7.10
2023-01-08T18:40:00.078Z,7.10
2023-01-08T18:42:50.648Z,7.10
2023-01-08T18:45:40.846Z,7.10
2023-01-08T18:48:31.229Z,7.10
2023-01-08T18:51:21.804Z,7.10
2023-01-08T18:54:13.286Z,7.10
2023-01-08T18:57:04.261Z,7.00
2023-01-08T18:59:54.060Z,7.10
2023-01-08T19:02:43.555Z,7.00
2023-01-08T19:05:32.401Z,7.00
2023-01-08T19:08:20.981Z,7.00
2023-01-08T19:11:12.443Z,7.00
2023-01-08T19:14:01.025Z,7.10
2023-01-08T19:16:52.325Z,7.10
2023-01-08T19:19:42.062Z,7.00
2023-01-08T19:22:33.312Z,7.00
2023-01-08T19:25:23.744Z,7.00
2023-01-08T19:28:13.866Z,7.10
2023-01-08T19:31:05.166Z,7.00
2023-01-08T19:33:55.203Z,7.00
2023-01-08T19:36:45.343Z,7.00
2023-01-08T19:39:34.637Z,7.00
2023-01-08T19:42:42.009Z,7.00
2023-01-08T19:45:33.721Z,7.00
2023-01-08T19:48:24.364Z,6.90
2023-01-08T19:51:14.687Z,7.00
2023-01-08T19:54:04.344Z,6.90
2023-01-08T19:56:55.143Z,6.90
2023-01-08T19:59:44.194Z,7.00
2023-01-08T20:02:35.986Z,7.00
2023-01-08T20:05:26.115Z,6.90
2023-01-08T20:08:16.884Z,7.00
2023-01-08T20:11:08.642Z,7.00
2023-01-08T20:14:01.427Z,7.00
2023-01-08T20:16:51.941Z,7.00
2023-01-08T20:19:43.953Z,7.00
2023-01-08T20:22:33.095Z,7.00
2023-01-08T20:25:24.377Z,6.90
2023-01-08T20:28:14.620Z,6.80
2023-01-08T20:31:09.571Z,6.70
2023-01-08T20:33:59.277Z,6.70
2023-01-08T20:36:49.771Z,6.60
2023-01-08T20:39:40.142Z,6.60
2023-01-08T20:42:34.049Z,6.50
2023-01-08T20:45:25.981Z,6.50
2023-01-08T20:48:15.412Z,6.60
2023-01-08T20:51:07.353Z,6.60
2023-01-08T20:53:58.622Z,6.70
2023-01-08T20:56:50.164Z,6.70
2023-01-08T20:59:40.088Z,6.80
2023-01-08T21:02:31.239Z,6.80
2023-01-08T21:05:20.126Z,6.80
2023-01-08T21:08:09.147Z,6.80
2023-01-08T21:11:03.881Z,6.90
2023-01-08T21:13:52.844Z,6.80
2023-01-08T21:16:41.558Z,6.90
2023-01-08T21:19:30.138Z,6.90
2023-01-08T21:22:18.749Z,6.90
2023-01-08T21:25:08.463Z,6.90
2023-01-08T21:28:13.814Z,6.90
2023-01-08T21:31:07.114Z,6.90
2023-01-08T21:33:58.479Z,6.90
2023-01-08T21:36:47.240Z,6.90
2023-01-08T21:39:36.727Z,6.90
2023-01-08T21:42:42.442Z,6.90
2023-01-08T21:45:32.509Z,6.90
2023-01-08T21:48:21.501Z,6.90
2023-01-08T21:51:25.295Z,6.90
2023-01-08T21:54:14.614Z,6.90
2023-01-08T21:57:03.360Z,6.90
2023-01-08T21:59:52.615Z,6.90
2023-01-08T22:02:43.335Z,6.90
2023-01-08T22:05:32.117Z,6.90
2023-01-08T22:08:20.987Z,6.90
2023-01-08T22:11:10.996Z,6.90
2023-01-08T22:14:00.837Z,6.90
2023-01-08T22:16:50.738Z,6.90
2023-01-08T22:19:41.254Z,6.90
2023-01-08T22:22:30.537Z,6.90
2023-01-08T22:25:20.502Z,6.90
2023-01-08T22:28:11.568Z,6.90
2023-01-08T22:31:00.215Z,6.90
2023-01-08T22:33:48.806Z,6.80
2023-01-08T22:36:39.133Z,6.80
2023-01-08T22:39:28.157Z,6.80
2023-01-08T22:42:16.908Z,6.80
2023-01-08T22:45:06.284Z,6.80
2023-01-08T22:47:55.009Z,6.80
2023-01-08T22:50:43.855Z,6.70
2023-01-08T22:53:34.124Z,6.70
2023-01-08T22:56:22.714Z,6.70
2023-01-08T22:59:11.322Z,6.60
2023-01-08T23:01:59.925Z,6.70
2023-01-08T23:04:51.898Z,6.70
2023-01-08T23:07:40.754Z,6.60
2023-01-08T23:10:31.133Z,6.60
2023-01-08T23:13:19.754Z,6.60
2023-01-08T23:16:10.849Z,6.60
2023-01-08T23:18:59.423Z,6.60
2023-01-08T23:21:48.014Z,6.60
2023-01-08T23:24:36.803Z,6.50
2023-01-08T23:27:27.095Z,6.60
2023-01-08T23:30:16.283Z,6.50
2023-01-08T23:33:05.159Z,6.50
2023-01-08T23:35:53.972Z,6.50
2023-01-08T23:38:42.522Z,6.50
2023-01-08T23:41:35.428Z,6.50
2023-01-08T23:44:25.552Z,6.50
2023-01-08T23:47:14.119Z,6.50
2023-01-08T23:50:02.830Z,6.50
2023-01-08T23:52:51.383Z,6.50
2023-01-08T23:55:39.973Z,6.50
2023-01-08T23:58:28.584Z,6.50
